sensor_id;sensor_type;location;lat;lon;timestamp;pressure;altitude;pressure_sealevel;temperature;humidity
38227;BME280;24026;49.446;8.576;2023-02-12T00:00:26;102609.66;;;11.32;45.51
38227;BME280;24026;49.446;8.576;2023-02-12T00:02:46;102602.72;;;11.31;45.46
38227;BME280;24026;49.446;8.576;2023-02-12T00:05:07;102605.75;;;11.28;45.48
38227;BME280;24026;49.446;8.576;2023-02-12T00:07:30;102615.16;;;11.30;45.43
38227;BME280;24026;49.446;8.576;2023-02-12T00:09:50;102598.38;;;11.30;45.35
38227;BME280;24026;49.446;8.576;2023-02-12T00:12:11;102597.38;;;11.31;45.49
38227;BME280;24026;49.446;8.576;2023-02-12T00:14:31;102595.91;;;11.28;45.45
38227;BME280;24026;49.446;8.576;2023-02-12T00:16:52;102602.06;;;11.29;45.43
38227;BME280;24026;49.446;8.576;2023-02-12T00:19:12;102598.56;;;11.28;45.51
38227;BME280;24026;49.446;8.576;2023-02-12T00:21:33;102600.44;;;11.28;45.52
38227;BME280;24026;49.446;8.576;2023-02-12T00:23:55;102598.56;;;11.28;45.50
38227;BME280;24026;49.446;8.576;2023-02-12T00:26:17;102591.41;;;11.29;45.57
38227;BME280;24026;49.446;8.576;2023-02-12T00:28:38;102603.91;;;11.28;45.84
38227;BME280;24026;49.446;8.576;2023-02-12T00:31:10;102601.44;;;11.27;45.61
38227;BME280;24026;49.446;8.576;2023-02-12T00:33:31;102600.63;;;11.26;45.58
38227;BME280;24026;49.446;8.576;2023-02-12T00:35:55;102594.44;;;11.26;45.74
38227;BME280;24026;49.446;8.576;2023-02-12T00:38:16;102598.75;;;11.27;45.44
38227;BME280;24026;49.446;8.576;2023-02-12T00:40:38;102606.75;;;11.27;45.75
38227;BME280;24026;49.446;8.576;2023-02-12T00:42:58;102603.28;;;11.26;45.70
38227;BME280;24026;49.446;8.576;2023-02-12T00:45:19;102602.25;;;11.27;45.82
38227;BME280;24026;49.446;8.576;2023-02-12T00:47:39;102603.28;;;11.26;45.82
38227;BME280;24026;49.446;8.576;2023-02-12T00:49:59;102616.59;;;11.26;45.78
38227;BME280;24026;49.446;8.576;2023-02-12T00:52:20;102619.25;;;11.26;45.81
38227;BME280;24026;49.446;8.576;2023-02-12T00:54:40;102614.75;;;11.27;45.54
38227;BME280;24026;49.446;8.576;2023-02-12T00:57:01;102613.94;;;11.26;45.75
38227;BME280;24026;49.446;8.576;2023-02-12T00:59:22;102617.59;;;11.25;45.82
38227;BME280;24026;49.446;8.576;2023-02-12T01:01:42;102615.75;;;11.26;45.77
38227;BME280;24026;49.446;8.576;2023-02-12T01:04:03;102625.56;;;11.25;45.74
38227;BME280;24026;49.446;8.576;2023-02-12T01:06:23;102617.59;;;11.25;45.91
38227;BME280;24026;49.446;8.576;2023-02-12T01:08:44;102627.44;;;11.25;45.83
38227;BME280;24026;49.446;8.576;2023-02-12T01:11:05;102618.63;;;11.24;45.87
38227;BME280;24026;49.446;8.576;2023-02-12T01:13:26;102612.25;;;11.25;46.04
38227;BME280;24026;49.446;8.576;2023-02-12T01:15:47;102608.78;;;11.25;45.88
38227;BME280;24026;49.446;8.576;2023-02-12T01:18:07;102614.94;;;11.25;45.92
38227;BME280;24026;49.446;8.576;2023-02-12T01:20:28;102615.97;;;11.24;46.09
38227;BME280;24026;49.446;8.576;2023-02-12T01:22:49;102622.09;;;11.25;46.17
38227;BME280;24026;49.446;8.576;2023-02-12T01:25:10;102611.44;;;11.25;45.92
38227;BME280;24026;49.446;8.576;2023-02-12T01:27:30;102615.13;;;11.24;45.88
38227;BME280;24026;49.446;8.576;2023-02-12T01:29:51;102615.97;;;11.24;46.02
38227;BME280;24026;49.446;8.576;2023-02-12T01:32:11;102617.78;;;11.24;45.97
38227;BME280;24026;49.446;8.576;2023-02-12T01:34:32;102615.13;;;11.24;46.14
38227;BME280;24026;49.446;8.576;2023-02-12T01:36:52;102608.16;;;11.23;46.02
38227;BME280;24026;49.446;8.576;2023-02-12T01:39:13;102615.31;;;11.22;46.17
38227;BME280;24026;49.446;8.576;2023-02-12T01:41:35;102614.31;;;11.23;46.27
38227;BME280;24026;49.446;8.576;2023-02-12T01:46:25;102611.84;;;11.22;46.08
38227;BME280;24026;49.446;8.576;2023-02-12T01:48:47;102624.13;;;11.23;46.08
38227;BME280;24026;49.446;8.576;2023-02-12T01:51:10;102611.84;;;11.22;46.11
38227;BME280;24026;49.446;8.576;2023-02-12T01:53:37;102610.16;;;11.21;46.26
38227;BME280;24026;49.446;8.576;2023-02-12T01:56:01;102603.03;;;11.21;46.16
38227;BME280;24026;49.446;8.576;2023-02-12T01:58:24;102601.19;;;11.22;46.07
38227;BME280;24026;49.446;8.576;2023-02-12T02:00:46;102595.03;;;11.21;46.19
38227;BME280;24026;49.446;8.576;2023-02-12T02:03:06;102597.72;;;11.21;46.31
38227;BME280;24026;49.446;8.576;2023-02-12T02:05:53;102596.44;;;11.17;46.35
38227;BME280;24026;49.446;8.576;2023-02-12T02:08:14;102596.88;;;11.21;46.43
38227;BME280;24026;49.446;8.576;2023-02-12T02:10:35;102593.38;;;11.20;46.41
38227;BME280;24026;49.446;8.576;2023-02-12T02:12:56;102601.38;;;11.20;46.19
38227;BME280;24026;49.446;8.576;2023-02-12T02:15:36;102590.91;;;11.19;46.32
38227;BME280;24026;49.446;8.576;2023-02-12T02:18:06;102592.75;;;11.18;46.41
38227;BME280;24026;49.446;8.576;2023-02-12T02:21:12;102594.16;;;11.14;46.34
38227;BME280;24026;49.446;8.576;2023-02-12T02:41:58;102606.63;;;11.13;46.70
38227;BME280;24026;49.446;8.576;2023-02-12T02:44:23;102607.25;;;11.16;46.52
38227;BME280;24026;49.446;8.576;2023-02-12T02:46:47;102600.13;;;11.16;46.50
38227;BME280;24026;49.446;8.576;2023-02-12T02:49:14;102600.13;;;11.16;46.59
38227;BME280;24026;49.446;8.576;2023-02-12T02:51:40;102597.66;;;11.15;46.59
38227;BME280;24026;49.446;8.576;2023-02-12T02:54:10;102602.78;;;11.16;46.53
38227;BME280;24026;49.446;8.576;2023-02-12T02:56:34;102601.13;;;11.15;46.91
38227;BME280;24026;49.446;8.576;2023-02-12T02:59:03;102598.66;;;11.13;46.52
38227;BME280;24026;49.446;8.576;2023-02-12T03:01:41;102588.81;;;11.14;46.64
38227;BME280;24026;49.446;8.576;2023-02-12T03:04:30;102588.38;;;11.10;46.79
38227;BME280;24026;49.446;8.576;2023-02-12T03:07:00;102588.00;;;11.13;46.70
38227;BME280;24026;49.446;8.576;2023-02-12T03:11:56;102585.16;;;11.15;46.78
38227;BME280;24026;49.446;8.576;2023-02-12T03:14:24;102580.84;;;11.14;46.68
38227;BME280;24026;49.446;8.576;2023-02-12T03:16:55;102590.66;;;11.13;46.77
38227;BME280;24026;49.446;8.576;2023-02-12T03:19:22;102584.53;;;11.13;46.78
38227;BME280;24026;49.446;8.576;2023-02-12T03:21:57;102602.31;;;11.12;46.74
38227;BME280;24026;49.446;8.576;2023-02-12T03:24:32;102599.22;;;11.09;46.73
38227;BME280;24026;49.446;8.576;2023-02-12T03:27:02;102599.47;;;11.14;46.92
38227;BME280;24026;49.446;8.576;2023-02-12T03:29:25;102602.31;;;11.12;46.56
38227;BME280;24026;49.446;8.576;2023-02-12T03:37:18;102598.84;;;11.12;46.88
38227;BME280;24026;49.446;8.576;2023-02-12T03:40:15;102593.09;;;11.08;47.02
38227;BME280;24026;49.446;8.576;2023-02-12T03:45:39;102595.75;;;11.08;47.10
38227;BME280;24026;49.446;8.576;2023-02-12T03:48:07;102601.06;;;11.08;46.97
38227;BME280;24026;49.446;8.576;2023-02-12T03:50:43;102601.06;;;11.08;47.19
38227;BME280;24026;49.446;8.576;2023-02-12T03:53:05;102598.22;;;11.10;47.15
38227;BME280;24026;49.446;8.576;2023-02-12T03:55:26;102593.72;;;11.10;46.81
38227;BME280;24026;49.446;8.576;2023-02-12T03:57:53;102604.34;;;11.10;47.26
38227;BME280;24026;49.446;8.576;2023-02-12T04:00:22;102600.06;;;11.09;47.12
38227;BME280;24026;49.446;8.576;2023-02-12T04:02:44;102601.69;;;11.10;46.82
38227;BME280;24026;49.446;8.576;2023-02-12T04:05:05;102605.19;;;11.11;46.79
38227;BME280;24026;49.446;8.576;2023-02-12T04:07:27;102607.00;;;11.10;46.97
38227;BME280;24026;49.446;8.576;2023-02-12T04:09:47;102604.34;;;11.10;47.12
38227;BME280;24026;49.446;8.576;2023-02-12T04:12:19;102611.72;;;11.08;47.27
38227;BME280;24026;49.446;8.576;2023-02-12T04:22:45;102614.56;;;11.07;47.20
38227;BME280;24026;49.446;8.576;2023-02-12T04:25:20;102617.03;;;11.08;47.11
38227;BME280;24026;49.446;8.576;2023-02-12T04:30:21;102620.69;;;11.07;47.28
38227;BME280;24026;49.446;8.576;2023-02-12T04:32:47;102622.34;;;11.08;47.09
38227;BME280;24026;49.446;8.576;2023-02-12T04:35:20;102627.88;;;11.07;47.37
38227;BME280;24026;49.446;8.576;2023-02-12T04:37:49;102623.34;;;11.07;47.43
38227;BME280;24026;49.446;8.576;2023-02-12T04:40:13;102615.19;;;11.09;47.19
38227;BME280;24026;49.446;8.576;2023-02-12T04:42:44;102625.41;;;11.05;47.22
38227;BME280;24026;49.446;8.576;2023-02-12T04:45:09;102628.69;;;11.07;47.29
38227;BME280;24026;49.446;8.576;2023-02-12T04:47:29;102626.03;;;11.07;47.34
38227;BME280;24026;49.446;8.576;2023-02-12T04:49:49;102623.34;;;11.07;47.19
38227;BME280;24026;49.446;8.576;2023-02-12T04:52:10;102621.72;;;11.06;47.36
38227;BME280;24026;49.446;8.576;2023-02-12T04:54:30;102622.53;;;11.07;47.48
38227;BME280;24026;49.446;8.576;2023-02-12T04:56:51;102621.91;;;11.05;47.22
38227;BME280;24026;49.446;8.576;2023-02-12T04:59:11;102622.72;;;11.05;47.61
38227;BME280;24026;49.446;8.576;2023-02-12T05:01:33;102620.69;;;11.07;47.21
38227;BME280;24026;49.446;8.576;2023-02-12T05:03:54;102613.75;;;11.06;47.43
38227;BME280;24026;49.446;8.576;2023-02-12T05:06:14;102616.41;;;11.06;47.50
38227;BME280;24026;49.446;8.576;2023-02-12T05:08:35;102612.91;;;11.06;47.47
38227;BME280;24026;49.446;8.576;2023-02-12T05:10:55;102617.41;;;11.05;47.32
38227;BME280;24026;49.446;8.576;2023-02-12T05:13:15;102611.91;;;11.07;47.36
38227;BME280;24026;49.446;8.576;2023-02-12T05:15:38;102607.59;;;11.06;47.33
38227;BME280;24026;49.446;8.576;2023-02-12T05:17:58;102612.91;;;11.06;47.47
38227;BME280;24026;49.446;8.576;2023-02-12T05:20:19;102603.28;;;11.05;47.54
38227;BME280;24026;49.446;8.576;2023-02-12T05:22:39;102611.28;;;11.05;47.62
38227;BME280;24026;49.446;8.576;2023-02-12T05:25:00;102611.28;;;11.05;47.88
38227;BME280;24026;49.446;8.576;2023-02-12T05:27:21;102621.09;;;11.04;47.54
38227;BME280;24026;49.446;8.576;2023-02-12T05:29:41;102612.28;;;11.04;47.45
38227;BME280;24026;49.446;8.576;2023-02-12T05:32:02;102616.78;;;11.03;47.44
38227;BME280;24026;49.446;8.576;2023-02-12T05:34:22;102610.47;;;11.04;47.66
38227;BME280;24026;49.446;8.576;2023-02-12T05:36:43;102610.47;;;11.04;47.60
38227;BME280;24026;49.446;8.576;2023-02-12T05:39:03;102615.78;;;11.04;47.48
38227;BME280;24026;49.446;8.576;2023-02-12T05:41:24;102611.66;;;11.02;47.36
38227;BME280;24026;49.446;8.576;2023-02-12T05:43:45;102610.00;;;11.01;47.87
38227;BME280;24026;49.446;8.576;2023-02-12T05:46:07;102613.31;;;11.03;47.68
38227;BME280;24026;49.446;8.576;2023-02-12T05:48:28;102611.66;;;11.02;47.58
38227;BME280;24026;49.446;8.576;2023-02-12T05:50:48;102611.84;;;11.00;47.49
38227;BME280;24026;49.446;8.576;2023-02-12T05:53:09;102613.69;;;11.00;47.54
38227;BME280;24026;49.446;8.576;2023-02-12T05:55:29;102619.63;;;11.02;47.86
38227;BME280;24026;49.446;8.576;2023-02-12T05:57:50;102624.31;;;11.00;47.66
38227;BME280;24026;49.446;8.576;2023-02-12T06:00:11;102622.28;;;11.02;47.79
38227;BME280;24026;49.446;8.576;2023-02-12T06:02:34;102629.66;;;11.00;47.73
38227;BME280;24026;49.446;8.576;2023-02-12T06:04:54;102634.34;;;10.98;47.97
38227;BME280;24026;49.446;8.576;2023-02-12T06:07:15;102633.31;;;10.99;47.68
38227;BME280;24026;49.446;8.576;2023-02-12T06:09:36;102628.81;;;10.99;47.86
38227;BME280;24026;49.446;8.576;2023-02-12T06:11:56;102635.34;;;10.97;48.20
38227;BME280;24026;49.446;8.576;2023-02-12T06:14:18;102626.38;;;10.98;47.96
38227;BME280;24026;49.446;8.576;2023-02-12T06:16:38;102620.19;;;10.97;47.73
38227;BME280;24026;49.446;8.576;2023-02-12T06:19:01;102629.03;;;10.98;47.90
38227;BME280;24026;49.446;8.576;2023-02-12T06:21:25;102632.88;;;10.95;48.07
38227;BME280;24026;49.446;8.576;2023-02-12T06:23:46;102633.69;;;10.96;48.03
38227;BME280;24026;49.446;8.576;2023-02-12T06:26:06;102636.34;;;10.96;47.88
38227;BME280;24026;49.446;8.576;2023-02-12T06:28:27;102644.34;;;10.96;48.14
38227;BME280;24026;49.446;8.576;2023-02-12T06:30:47;102644.50;;;10.94;47.89
38227;BME280;24026;49.446;8.576;2023-02-12T06:33:08;102642.88;;;10.93;48.09
38227;BME280;24026;49.446;8.576;2023-02-12T06:35:28;102646.38;;;10.93;47.93
38227;BME280;24026;49.446;8.576;2023-02-12T06:37:49;102651.88;;;10.92;47.95
38227;BME280;24026;49.446;8.576;2023-02-12T06:40:09;102650.88;;;10.93;47.97
38227;BME280;24026;49.446;8.576;2023-02-12T06:42:30;102647.38;;;10.92;47.61
38227;BME280;24026;49.446;8.576;2023-02-12T06:44:50;102644.69;;;10.92;48.01
38227;BME280;24026;49.446;8.576;2023-02-12T06:47:11;102641.22;;;10.92;48.21
38227;BME280;24026;49.446;8.576;2023-02-12T06:49:31;102652.91;;;10.91;48.20
38227;BME280;24026;49.446;8.576;2023-02-12T06:51:51;102652.91;;;10.91;48.26
38227;BME280;24026;49.446;8.576;2023-02-12T06:54:14;102652.91;;;10.91;48.13
38227;BME280;24026;49.446;8.576;2023-02-12T06:56:34;102652.06;;;10.90;48.18
38227;BME280;24026;49.446;8.576;2023-02-12T06:58:57;102656.38;;;10.91;48.32
38227;BME280;24026;49.446;8.576;2023-02-12T07:01:21;102655.56;;;10.91;48.06
38227;BME280;24026;49.446;8.576;2023-02-12T07:03:53;102659.22;;;10.90;48.30
38227;BME280;24026;49.446;8.576;2023-02-12T07:06:13;102660.88;;;10.91;48.20
38227;BME280;24026;49.446;8.576;2023-02-12T07:08:34;102664.34;;;10.91;48.15
38227;BME280;24026;49.446;8.576;2023-02-12T07:10:55;102663.53;;;10.91;48.19
38227;BME280;24026;49.446;8.576;2023-02-12T07:13:16;102669.88;;;10.90;48.25
38227;BME280;24026;49.446;8.576;2023-02-12T07:15:40;102666.38;;;10.89;48.21
38227;BME280;24026;49.446;8.576;2023-02-12T07:18:00;102670.69;;;10.90;48.29
38227;BME280;24026;49.446;8.576;2023-02-12T07:20:20;102672.34;;;10.91;48.45
38227;BME280;24026;49.446;8.576;2023-02-12T07:22:41;102669.88;;;10.90;48.33
38227;BME280;24026;49.446;8.576;2023-02-12T07:25:01;102674.19;;;10.91;48.17
38227;BME280;24026;49.446;8.576;2023-02-12T07:27:22;102671.53;;;10.91;48.28
38227;BME280;24026;49.446;8.576;2023-02-12T07:29:42;102678.66;;;10.90;48.47
38227;BME280;24026;49.446;8.576;2023-02-12T07:32:03;102676.00;;;10.90;48.32
38227;BME280;24026;49.446;8.576;2023-02-12T07:34:23;102677.84;;;10.90;48.46
38227;BME280;24026;49.446;8.576;2023-02-12T07:36:44;102687.50;;;10.91;48.32
38227;BME280;24026;49.446;8.576;2023-02-12T07:39:04;102684.84;;;10.91;48.21
38227;BME280;24026;49.446;8.576;2023-02-12T07:41:27;102676.00;;;10.90;48.29
38227;BME280;24026;49.446;8.576;2023-02-12T07:43:53;102672.53;;;10.90;48.11
38227;BME280;24026;49.446;8.576;2023-02-12T07:48:38;102688.94;;;10.93;48.13
38227;BME280;24026;49.446;8.576;2023-02-12T07:51:07;102680.50;;;10.90;48.44
38227;BME280;24026;49.446;8.576;2023-02-12T07:53:28;102688.31;;;10.91;48.27
38227;BME280;24026;49.446;8.576;2023-02-12T07:55:48;102684.63;;;10.92;48.28
38227;BME280;24026;49.446;8.576;2023-02-12T07:58:08;102684.63;;;10.92;48.29
38227;BME280;24026;49.446;8.576;2023-02-12T08:00:29;102691.78;;;10.92;48.40
38227;BME280;24026;49.446;8.576;2023-02-12T08:02:51;102688.94;;;10.93;48.29
38227;BME280;24026;49.446;8.576;2023-02-12T08:05:12;102682.97;;;10.91;48.40
38227;BME280;24026;49.446;8.576;2023-02-12T08:07:32;102684.63;;;10.92;48.16
38227;BME280;24026;49.446;8.576;2023-02-12T08:09:52;102687.28;;;10.92;48.28
38227;BME280;24026;49.446;8.576;2023-02-12T08:12:13;102695.25;;;10.92;48.44
38227;BME280;24026;49.446;8.576;2023-02-12T08:14:33;102688.94;;;10.93;48.48
38227;BME280;24026;49.446;8.576;2023-02-12T08:16:54;102692.59;;;10.92;48.33
38227;BME280;24026;49.446;8.576;2023-02-12T08:19:15;102692.41;;;10.94;48.43
38227;BME280;24026;49.446;8.576;2023-02-12T08:21:36;102693.44;;;10.93;48.49
38227;BME280;24026;49.446;8.576;2023-02-12T08:23:57;102696.09;;;10.93;48.32
38227;BME280;24026;49.446;8.576;2023-02-12T08:26:19;102702.06;;;10.95;48.06
38227;BME280;24026;49.446;8.576;2023-02-12T08:28:43;102702.88;;;10.96;48.33
38227;BME280;24026;49.446;8.576;2023-02-12T08:31:07;102701.06;;;10.96;48.56
38227;BME280;24026;49.446;8.576;2023-02-12T08:33:27;102700.22;;;10.96;48.31
38227;BME280;24026;49.446;8.576;2023-02-12T08:35:47;102701.88;;;10.97;48.14
38227;BME280;24026;49.446;8.576;2023-02-12T08:38:08;102703.72;;;10.96;48.43
38227;BME280;24026;49.446;8.576;2023-02-12T08:40:28;102701.69;;;10.98;48.16
38227;BME280;24026;49.446;8.576;2023-02-12T08:42:49;102698.41;;;10.96;48.23
38227;BME280;24026;49.446;8.576;2023-02-12T08:45:11;102703.72;;;10.96;48.33
38227;BME280;24026;49.446;8.576;2023-02-12T08:47:32;102705.34;;;10.97;48.39
38227;BME280;24026;49.446;8.576;2023-02-12T08:49:53;102700.88;;;10.98;48.37
38227;BME280;24026;49.446;8.576;2023-02-12T08:52:14;102709.66;;;10.98;48.34
38227;BME280;24026;49.446;8.576;2023-02-12T08:54:34;102711.50;;;10.98;48.38
38227;BME280;24026;49.446;8.576;2023-02-12T08:56:56;102712.50;;;10.97;48.46
38227;BME280;24026;49.446;8.576;2023-02-12T08:59:17;102718.47;;;10.99;48.53
38227;BME280;24026;49.446;8.576;2023-02-12T09:01:38;102711.13;;;11.01;48.30
38227;BME280;24026;49.446;8.576;2023-02-12T09:04:00;102704.97;;;11.00;48.38
38227;BME280;24026;49.446;8.576;2023-02-12T09:06:23;102714.63;;;11.01;48.19
38227;BME280;24026;49.446;8.576;2023-02-12T09:08:44;102719.94;;;11.01;48.39
38227;BME280;24026;49.446;8.576;2023-02-12T09:11:06;102719.75;;;11.03;48.39
38227;BME280;24026;49.446;8.576;2023-02-12T09:13:27;102719.75;;;11.03;48.43
38227;BME280;24026;49.446;8.576;2023-02-12T09:15:47;102721.56;;;11.02;48.49
38227;BME280;24026;49.446;8.576;2023-02-12T09:18:12;102722.22;;;11.04;48.29
38227;BME280;24026;49.446;8.576;2023-02-12T09:20:37;102717.09;;;11.03;48.42
38227;BME280;24026;49.446;8.576;2023-02-12T09:22:59;102718.72;;;11.04;48.52
38227;BME280;24026;49.446;8.576;2023-02-12T09:25:19;102717.72;;;11.05;48.35
38227;BME280;24026;49.446;8.576;2023-02-12T09:27:39;102718.53;;;11.05;48.52
38227;BME280;24026;49.446;8.576;2023-02-12T09:30:00;102725.72;;;11.05;48.47
38227;BME280;24026;49.446;8.576;2023-02-12T09:32:20;102724.69;;;11.06;48.32
38227;BME280;24026;49.446;8.576;2023-02-12T09:34:41;102726.16;;;11.08;48.12
38227;BME280;24026;49.446;8.576;2023-02-12T09:37:01;102725.34;;;11.08;48.40
38227;BME280;24026;49.446;8.576;2023-02-12T09:39:22;102728.81;;;11.08;48.50
38227;BME280;24026;49.446;8.576;2023-02-12T09:44:45;102724.31;;;11.09;48.54
38227;BME280;24026;49.446;8.576;2023-02-12T09:47:32;102730.22;;;11.04;48.41
38227;BME280;24026;49.446;8.576;2023-02-12T09:50:28;102726.72;;;11.04;48.67
38227;BME280;24026;49.446;8.576;2023-02-12T09:52:49;102733.63;;;10.98;48.75
38227;BME280;24026;49.446;8.576;2023-02-12T09:55:19;102731.84;;;11.05;48.71
38227;BME280;24026;49.446;8.576;2023-02-12T09:57:42;102727.81;;;11.09;48.46
38227;BME280;24026;49.446;8.576;2023-02-12T10:02:27;102730.91;;;11.13;48.42
38227;BME280;24026;49.446;8.576;2023-02-12T10:04:48;102736.25;;;11.13;48.62
38227;BME280;24026;49.446;8.576;2023-02-12T10:07:25;102726.78;;;11.10;48.60
38227;BME280;24026;49.446;8.576;2023-02-12T10:13:01;102730.06;;;11.12;48.63
38227;BME280;24026;49.446;8.576;2023-02-12T10:15:34;102728.63;;;11.10;48.67
38227;BME280;24026;49.446;8.576;2023-02-12T10:21:15;102719.44;;;11.12;48.68
38227;BME280;24026;49.446;8.576;2023-02-12T10:28:40;102719.50;;;11.19;48.49
38227;BME280;24026;49.446;8.576;2023-02-12T10:31:11;102712.53;;;11.18;48.48
38227;BME280;24026;49.446;8.576;2023-02-12T10:36:06;102707.66;;;11.22;48.58
38227;BME280;24026;49.446;8.576;2023-02-12T10:38:34;102704.00;;;11.23;48.42
38227;BME280;24026;49.446;8.576;2023-02-12T10:40:57;102707.47;;;11.23;48.41
38227;BME280;24026;49.446;8.576;2023-02-12T10:43:20;102708.91;;;11.26;48.34
38227;BME280;24026;49.446;8.576;2023-02-12T10:45:42;102711.56;;;11.26;48.51
38227;BME280;24026;49.446;8.576;2023-02-12T10:53:01;102704.25;;;11.28;48.39
38227;BME280;24026;49.446;8.576;2023-02-12T10:55:34;102700.94;;;11.26;48.43
38227;BME280;24026;49.446;8.576;2023-02-12T10:57:57;102695.41;;;11.27;48.24
38227;BME280;24026;49.446;8.576;2023-02-12T11:03:08;102692.75;;;11.27;48.50
38227;BME280;24026;49.446;8.576;2023-02-12T11:05:40;102688.72;;;11.31;48.47
38227;BME280;24026;49.446;8.576;2023-02-12T11:08:01;102696.50;;;11.33;48.36
38227;BME280;24026;49.446;8.576;2023-02-12T11:10:36;102691.38;;;11.31;48.42
38227;BME280;24026;49.446;8.576;2023-02-12T11:12:58;102684.84;;;11.34;48.40
38227;BME280;24026;49.446;8.576;2023-02-12T11:15:22;102689.97;;;11.36;48.35
38227;BME280;24026;49.446;8.576;2023-02-12T11:18:01;102684.03;;;11.34;48.42
38227;BME280;24026;49.446;8.576;2023-02-12T11:20:25;102675.47;;;11.38;48.37
38227;BME280;24026;49.446;8.576;2023-02-12T11:23:01;102676.66;;;11.36;48.17
38227;BME280;24026;49.446;8.576;2023-02-12T11:25:25;102677.94;;;11.40;48.60
38227;BME280;24026;49.446;8.576;2023-02-12T11:28:02;102670.13;;;11.38;48.22
38227;BME280;24026;49.446;8.576;2023-02-12T11:30:23;102674.91;;;11.43;48.23
38227;BME280;24026;49.446;8.576;2023-02-12T11:32:44;102662.41;;;11.43;48.21
38227;BME280;24026;49.446;8.576;2023-02-12T11:35:19;102658.72;;;11.44;48.47
38227;BME280;24026;49.446;8.576;2023-02-12T11:37:47;102666.50;;;11.46;48.37
38227;BME280;24026;49.446;8.576;2023-02-12T11:40:22;102665.06;;;11.43;48.07
38227;BME280;24026;49.446;8.576;2023-02-12T11:42:46;102661.53;;;11.36;48.56
38227;BME280;24026;49.446;8.576;2023-02-12T11:45:15;102649.09;;;11.43;48.53
38227;BME280;24026;49.446;8.576;2023-02-12T11:47:39;102651.19;;;11.48;48.41
38227;BME280;24026;49.446;8.576;2023-02-12T11:50:04;102649.13;;;11.50;48.38
38227;BME280;24026;49.446;8.576;2023-02-12T11:52:30;102650.56;;;11.53;48.26
38227;BME280;24026;49.446;8.576;2023-02-12T11:54:54;102645.06;;;11.54;48.21
38227;BME280;24026;49.446;8.576;2023-02-12T11:57:38;102640.34;;;11.49;48.18
38227;BME280;24026;49.446;8.576;2023-02-12T12:00:10;102644.88;;;11.56;48.32
38227;BME280;24026;49.446;8.576;2023-02-12T12:02:37;102645.72;;;11.56;48.03
38227;BME280;24026;49.446;8.576;2023-02-12T12:05:07;102646.72;;;11.55;48.31
38227;BME280;24026;49.446;8.576;2023-02-12T12:07:33;102636.50;;;11.59;48.07
38227;BME280;24026;49.446;8.576;2023-02-12T12:10:00;102634.66;;;11.59;48.21
38227;BME280;24026;49.446;8.576;2023-02-12T12:12:39;102634.88;;;11.58;48.27
38227;BME280;24026;49.446;8.576;2023-02-12T12:15:22;102630.53;;;11.57;48.13
38227;BME280;24026;49.446;8.576;2023-02-12T12:21:11;102618.66;;;11.59;48.23
38227;BME280;24026;49.446;8.576;2023-02-12T12:23:40;102626.09;;;11.64;47.99
38227;BME280;24026;49.446;8.576;2023-02-12T12:26:09;102615.44;;;11.64;48.39
38227;BME280;24026;49.446;8.576;2023-02-12T12:31:26;102623.22;;;11.65;48.07
38227;BME280;24026;49.446;8.576;2023-02-12T12:39:11;102615.47;;;11.71;47.98
38227;BME280;24026;49.446;8.576;2023-02-12T12:53:03;102597.06;;;11.76;47.75
38227;BME280;24026;49.446;8.576;2023-02-12T12:58:00;102590.69;;;11.70;48.00
38227;BME280;24026;49.446;8.576;2023-02-12T13:13:17;102567.63;;;11.91;47.56
38227;BME280;24026;49.446;8.576;2023-02-12T13:26:29;102560.75;;;11.96;47.23
38227;BME280;24026;49.446;8.576;2023-02-12T13:28:57;102562.78;;;12.01;47.16
38227;BME280;24026;49.446;8.576;2023-02-12T13:31:23;102556.44;;;12.02;47.36
38227;BME280;24026;49.446;8.576;2023-02-12T13:33:51;102557.88;;;11.98;47.36
38227;BME280;24026;49.446;8.576;2023-02-12T13:36:14;102554.59;;;12.02;47.27
38227;BME280;24026;49.446;8.576;2023-02-12T13:38:38;102554.19;;;12.05;47.10
38227;BME280;24026;49.446;8.576;2023-02-12T13:41:04;102559.34;;;12.07;47.13
38227;BME280;24026;49.446;8.576;2023-02-12T13:43:46;102553.81;;;12.09;47.25
38227;BME280;24026;49.446;8.576;2023-02-12T13:46:20;102554.63;;;12.09;47.18
38227;BME280;24026;49.446;8.576;2023-02-12T13:49:17;102553.81;;;12.09;47.10
38227;BME280;24026;49.446;8.576;2023-02-12T13:51:46;102549.31;;;12.16;47.07
38227;BME280;24026;49.446;8.576;2023-02-12T13:56:51;102551.59;;;12.19;46.99
38227;BME280;24026;49.446;8.576;2023-02-12T14:01:51;102535.00;;;12.23;46.78
38227;BME280;24026;49.446;8.576;2023-02-12T14:04:24;102536.66;;;12.25;46.79
38227;BME280;24026;49.446;8.576;2023-02-12T14:07:14;102531.09;;;12.26;46.61
38227;BME280;24026;49.446;8.576;2023-02-12T14:11:58;102522.31;;;12.32;46.57
38227;BME280;24026;49.446;8.576;2023-02-12T14:14:34;102526.81;;;12.32;46.72
38227;BME280;24026;49.446;8.576;2023-02-12T14:16:55;102521.09;;;12.35;46.37
38227;BME280;24026;49.446;8.576;2023-02-12T14:21:55;102528.06;;;12.42;46.31
38227;BME280;24026;49.446;8.576;2023-02-12T14:26:56;102516.78;;;12.47;46.07
38227;BME280;24026;49.446;8.576;2023-02-12T14:29:18;102519.69;;;12.52;46.16
38227;BME280;24026;49.446;8.576;2023-02-12T14:31:41;102517.41;;;12.56;46.11
38227;BME280;24026;49.446;8.576;2023-02-12T14:41:34;102514.16;;;13.07;44.68
38227;BME280;24026;49.446;8.576;2023-02-12T14:46:51;102508.22;;;12.98;44.93
38227;BME280;24026;49.446;8.576;2023-02-12T14:49:26;102506.56;;;12.91;45.08
38227;BME280;24026;49.446;8.576;2023-02-12T14:54:31;102496.94;;;12.76;45.22
38227;BME280;24026;49.446;8.576;2023-02-12T14:56:53;102498.75;;;12.63;45.56
38227;BME280;24026;49.446;8.576;2023-02-12T14:59:19;102501.44;;;12.69;45.54
38227;BME280;24026;49.446;8.576;2023-02-12T15:01:41;102494.69;;;12.73;45.73